sensor_id;sensor_type;location;lat;lon;timestamp;P1;durP1;ratioP1;P2;durP2;ratioP2
68353;SDS011;55274;43.060;25.618;2022-11-11T00:00:22;33.70;;;13.93;;
68353;SDS011;55274;43.060;25.618;2022-11-11T00:02:48;32.97;;;13.43;;
68353;SDS011;55274;43.060;25.618;2022-11-11T00:05:14;30.92;;;13.45;;
68353;SDS011;55274;43.060;25.618;2022-11-11T00:07:41;28.90;;;12.95;;
68353;SDS011;55274;43.060;25.618;2022-11-11T00:10:08;34.33;;;13.95;;
68353;SDS011;55274;43.060;25.618;2022-11-11T00:12:34;29.25;;;13.07;;
68353;SDS011;55274;43.060;25.618;2022-11-11T00:15:00;28.02;;;12.57;;
68353;SDS011;55274;43.060;25.618;2022-11-11T00:17:26;29.70;;;13.55;;
68353;SDS011;55274;43.060;25.618;2022-11-11T00:20:10;29.35;;;12.30;;
68353;SDS011;55274;43.060;25.618;2022-11-11T00:22:55;32.10;;;13.95;;
68353;SDS011;55274;43.060;25.618;2022-11-11T00:25:39;29.58;;;12.98;;
68353;SDS011;55274;43.060;25.618;2022-11-11T00:28:05;31.92;;;13.55;;
68353;SDS011;55274;43.060;25.618;2022-11-11T00:30:31;32.40;;;14.02;;
68353;SDS011;55274;43.060;25.618;2022-11-11T00:32:57;29.08;;;12.80;;
68353;SDS011;55274;43.060;25.618;2022-11-11T00:35:22;32.80;;;14.73;;
68353;SDS011;55274;43.060;25.618;2022-11-11T00:38:08;30.33;;;14.10;;
68353;SDS011;55274;43.060;25.618;2022-11-11T00:40:35;32.88;;;13.45;;
68353;SDS011;55274;43.060;25.618;2022-11-11T00:43:01;31.17;;;14.02;;
68353;SDS011;55274;43.060;25.618;2022-11-11T00:45:27;29.42;;;13.38;;
68353;SDS011;55274;43.060;25.618;2022-11-11T00:47:53;30.90;;;13.45;;
68353;SDS011;55274;43.060;25.618;2022-11-11T00:50:37;36.67;;;13.35;;
68353;SDS011;55274;43.060;25.618;2022-11-11T00:53:22;34.35;;;13.55;;
68353;SDS011;55274;43.060;25.618;2022-11-11T00:55:50;29.17;;;13.88;;
68353;SDS011;55274;43.060;25.618;2022-11-11T00:58:16;30.60;;;13.63;;
68353;SDS011;55274;43.060;25.618;2022-11-11T01:00:42;30.88;;;13.80;;
68353;SDS011;55274;43.060;25.618;2022-11-11T01:03:08;31.73;;;13.65;;
68353;SDS011;55274;43.060;25.618;2022-11-11T01:05:37;32.60;;;14.38;;
68353;SDS011;55274;43.060;25.618;2022-11-11T01:08:03;36.38;;;13.98;;
68353;SDS011;55274;43.060;25.618;2022-11-11T01:10:29;34.40;;;14.40;;
68353;SDS011;55274;43.060;25.618;2022-11-11T01:15:46;31.13;;;13.70;;
68353;SDS011;55274;43.060;25.618;2022-11-11T01:18:16;31.25;;;14.93;;
68353;SDS011;55274;43.060;25.618;2022-11-11T01:20:47;30.20;;;13.93;;
68353;SDS011;55274;43.060;25.618;2022-11-11T01:23:21;32.53;;;13.60;;
68353;SDS011;55274;43.060;25.618;2022-11-11T01:25:47;33.15;;;14.48;;
68353;SDS011;55274;43.060;25.618;2022-11-11T01:28:13;33.33;;;13.68;;
68353;SDS011;55274;43.060;25.618;2022-11-11T01:30:39;35.33;;;14.60;;
68353;SDS011;55274;43.060;25.618;2022-11-11T01:33:05;34.50;;;14.43;;
68353;SDS011;55274;43.060;25.618;2022-11-11T01:35:30;32.97;;;14.07;;
68353;SDS011;55274;43.060;25.618;2022-11-11T01:37:57;31.08;;;13.68;;
68353;SDS011;55274;43.060;25.618;2022-11-11T01:40:23;31.98;;;14.63;;
68353;SDS011;55274;43.060;25.618;2022-11-11T01:42:53;30.25;;;13.55;;
68353;SDS011;55274;43.060;25.618;2022-11-11T01:48:34;37.55;;;15.05;;
68353;SDS011;55274;43.060;25.618;2022-11-11T01:51:45;35.97;;;15.40;;
68353;SDS011;55274;43.060;25.618;2022-11-11T01:54:13;34.45;;;15.43;;
68353;SDS011;55274;43.060;25.618;2022-11-11T01:56:57;42.00;;;17.05;;
68353;SDS011;55274;43.060;25.618;2022-11-11T01:59:28;33.50;;;14.50;;
68353;SDS011;55274;43.060;25.618;2022-11-11T02:01:56;35.90;;;15.63;;
68353;SDS011;55274;43.060;25.618;2022-11-11T02:04:22;37.22;;;14.82;;
68353;SDS011;55274;43.060;25.618;2022-11-11T02:07:08;36.65;;;14.63;;
68353;SDS011;55274;43.060;25.618;2022-11-11T02:09:35;34.08;;;14.55;;
68353;SDS011;55274;43.060;25.618;2022-11-11T02:12:05;34.70;;;15.23;;
68353;SDS011;55274;43.060;25.618;2022-11-11T02:14:52;36.95;;;14.43;;
68353;SDS011;55274;43.060;25.618;2022-11-11T02:17:21;38.45;;;15.38;;
68353;SDS011;55274;43.060;25.618;2022-11-11T02:19:49;37.15;;;15.23;;
68353;SDS011;55274;43.060;25.618;2022-11-11T02:25:20;31.92;;;14.25;;
68353;SDS011;55274;43.060;25.618;2022-11-11T02:27:49;35.08;;;14.15;;
68353;SDS011;55274;43.060;25.618;2022-11-11T02:30:18;31.30;;;13.43;;
68353;SDS011;55274;43.060;25.618;2022-11-11T02:32:47;31.67;;;13.48;;
68353;SDS011;55274;43.060;25.618;2022-11-11T02:35:16;28.83;;;12.27;;
68353;SDS011;55274;43.060;25.618;2022-11-11T02:37:49;35.33;;;13.35;;
68353;SDS011;55274;43.060;25.618;2022-11-11T02:40:18;28.98;;;13.55;;
68353;SDS011;55274;43.060;25.618;2022-11-11T02:43:00;30.20;;;13.18;;
68353;SDS011;55274;43.060;25.618;2022-11-11T02:45:26;31.85;;;13.95;;
68353;SDS011;55274;43.060;25.618;2022-11-11T02:47:52;31.45;;;13.02;;
68353;SDS011;55274;43.060;25.618;2022-11-11T02:50:18;44.72;;;13.93;;
68353;SDS011;55274;43.060;25.618;2022-11-11T02:52:44;36.33;;;13.55;;
68353;SDS011;55274;43.060;25.618;2022-11-11T02:55:10;34.15;;;13.90;;
68353;SDS011;55274;43.060;25.618;2022-11-11T02:57:36;33.60;;;13.48;;
68353;SDS011;55274;43.060;25.618;2022-11-11T03:00:02;33.30;;;13.43;;
68353;SDS011;55274;43.060;25.618;2022-11-11T03:02:29;34.60;;;14.05;;
68353;SDS011;55274;43.060;25.618;2022-11-11T03:04:55;34.92;;;13.63;;
68353;SDS011;55274;43.060;25.618;2022-11-11T03:07:21;37.53;;;15.25;;
68353;SDS011;55274;43.060;25.618;2022-11-11T03:09:48;38.70;;;16.80;;
68353;SDS011;55274;43.060;25.618;2022-11-11T03:12:14;32.78;;;14.55;;
68353;SDS011;55274;43.060;25.618;2022-11-11T03:14:40;34.15;;;14.45;;
68353;SDS011;55274;43.060;25.618;2022-11-11T03:17:06;32.47;;;14.60;;
68353;SDS011;55274;43.060;25.618;2022-11-11T03:19:50;32.17;;;13.80;;
68353;SDS011;55274;43.060;25.618;2022-11-11T03:22:16;37.45;;;15.35;;
68353;SDS011;55274;43.060;25.618;2022-11-11T03:24:42;36.33;;;15.48;;
68353;SDS011;55274;43.060;25.618;2022-11-11T03:27:26;40.28;;;16.77;;
68353;SDS011;55274;43.060;25.618;2022-11-11T03:29:52;37.78;;;14.77;;
68353;SDS011;55274;43.060;25.618;2022-11-11T03:32:17;40.45;;;16.02;;
68353;SDS011;55274;43.060;25.618;2022-11-11T03:34:43;42.33;;;14.95;;
68353;SDS011;55274;43.060;25.618;2022-11-11T03:37:09;39.63;;;15.65;;
68353;SDS011;55274;43.060;25.618;2022-11-11T03:39:55;31.00;;;13.48;;
68353;SDS011;55274;43.060;25.618;2022-11-11T03:42:20;39.08;;;13.88;;
68353;SDS011;55274;43.060;25.618;2022-11-11T03:44:46;33.03;;;14.32;;
68353;SDS011;55274;43.060;25.618;2022-11-11T03:47:12;34.58;;;14.95;;
68353;SDS011;55274;43.060;25.618;2022-11-11T03:49:40;30.80;;;13.85;;
68353;SDS011;55274;43.060;25.618;2022-11-11T03:52:07;33.90;;;13.25;;
68353;SDS011;55274;43.060;25.618;2022-11-11T03:54:33;41.40;;;14.65;;
68353;SDS011;55274;43.060;25.618;2022-11-11T03:56:58;42.70;;;16.83;;
68353;SDS011;55274;43.060;25.618;2022-11-11T03:59:42;39.17;;;14.45;;
68353;SDS011;55274;43.060;25.618;2022-11-11T04:02:12;36.92;;;14.52;;
68353;SDS011;55274;43.060;25.618;2022-11-11T04:04:57;35.88;;;14.60;;
68353;SDS011;55274;43.060;25.618;2022-11-11T04:07:41;50.05;;;24.13;;
68353;SDS011;55274;43.060;25.618;2022-11-11T04:10:27;44.40;;;16.23;;
68353;SDS011;55274;43.060;25.618;2022-11-11T04:12:54;38.60;;;14.63;;
68353;SDS011;55274;43.060;25.618;2022-11-11T04:15:40;38.78;;;14.55;;
68353;SDS011;55274;43.060;25.618;2022-11-11T04:18:25;44.03;;;15.15;;
68353;SDS011;55274;43.060;25.618;2022-11-11T04:21:09;38.53;;;14.43;;
68353;SDS011;55274;43.060;25.618;2022-11-11T04:23:53;36.97;;;14.82;;
68353;SDS011;55274;43.060;25.618;2022-11-11T04:26:19;38.33;;;15.18;;
68353;SDS011;55274;43.060;25.618;2022-11-11T04:28:45;41.88;;;14.93;;
68353;SDS011;55274;43.060;25.618;2022-11-11T04:31:29;37.72;;;15.15;;
68353;SDS011;55274;43.060;25.618;2022-11-11T04:33:55;49.28;;;16.02;;
68353;SDS011;55274;43.060;25.618;2022-11-11T04:36:21;48.58;;;16.65;;
68353;SDS011;55274;43.060;25.618;2022-11-11T04:38:47;39.17;;;15.10;;
68353;SDS011;55274;43.060;25.618;2022-11-11T04:41:31;39.53;;;14.77;;
68353;SDS011;55274;43.060;25.618;2022-11-11T04:43:57;47.20;;;15.63;;
68353;SDS011;55274;43.060;25.618;2022-11-11T04:46:41;44.33;;;15.48;;
68353;SDS011;55274;43.060;25.618;2022-11-11T04:49:07;45.45;;;15.65;;
68353;SDS011;55274;43.060;25.618;2022-11-11T04:51:32;34.95;;;14.82;;
68353;SDS011;55274;43.060;25.618;2022-11-11T04:54:16;41.67;;;15.73;;
68353;SDS011;55274;43.060;25.618;2022-11-11T04:56:42;57.33;;;17.33;;
68353;SDS011;55274;43.060;25.618;2022-11-11T04:59:17;78.00;;;20.85;;
68353;SDS011;55274;43.060;25.618;2022-11-11T05:01:44;45.10;;;17.35;;
68353;SDS011;55274;43.060;25.618;2022-11-11T05:04:29;48.70;;;18.42;;
68353;SDS011;55274;43.060;25.618;2022-11-11T05:06:55;72.03;;;18.85;;
68353;SDS011;55274;43.060;25.618;2022-11-11T05:09:39;41.65;;;17.67;;
68353;SDS011;55274;43.060;25.618;2022-11-11T05:12:05;42.20;;;17.20;;
68353;SDS011;55274;43.060;25.618;2022-11-11T05:14:31;47.80;;;18.13;;
68353;SDS011;55274;43.060;25.618;2022-11-11T05:17:15;39.95;;;16.70;;
68353;SDS011;55274;43.060;25.618;2022-11-11T05:20:00;41.13;;;16.48;;
68353;SDS011;55274;43.060;25.618;2022-11-11T05:22:44;45.13;;;16.95;;
68353;SDS011;55274;43.060;25.618;2022-11-11T05:25:10;43.67;;;18.13;;
68353;SDS011;55274;43.060;25.618;2022-11-11T05:27:57;43.80;;;17.15;;
68353;SDS011;55274;43.060;25.618;2022-11-11T05:30:24;46.67;;;18.33;;
68353;SDS011;55274;43.060;25.618;2022-11-11T05:32:50;50.60;;;18.60;;
68353;SDS011;55274;43.060;25.618;2022-11-11T05:35:18;44.45;;;18.08;;
68353;SDS011;55274;43.060;25.618;2022-11-11T05:37:44;45.28;;;17.77;;
68353;SDS011;55274;43.060;25.618;2022-11-11T05:40:30;45.78;;;18.08;;
68353;SDS011;55274;43.060;25.618;2022-11-11T05:42:56;53.17;;;18.52;;
68353;SDS011;55274;43.060;25.618;2022-11-11T05:45:21;43.25;;;18.02;;
68353;SDS011;55274;43.060;25.618;2022-11-11T05:47:47;49.88;;;18.60;;
68353;SDS011;55274;43.060;25.618;2022-11-11T05:50:13;41.95;;;16.92;;
68353;SDS011;55274;43.060;25.618;2022-11-11T05:52:39;43.55;;;17.52;;
68353;SDS011;55274;43.060;25.618;2022-11-11T05:55:12;40.55;;;16.48;;
68353;SDS011;55274;43.060;25.618;2022-11-11T05:57:37;40.33;;;16.67;;
68353;SDS011;55274;43.060;25.618;2022-11-11T06:00:03;39.60;;;17.63;;
68353;SDS011;55274;43.060;25.618;2022-11-11T06:02:29;39.75;;;17.60;;
68353;SDS011;55274;43.060;25.618;2022-11-11T06:04:55;45.00;;;18.23;;
68353;SDS011;55274;43.060;25.618;2022-11-11T06:07:21;43.90;;;17.55;;
68353;SDS011;55274;43.060;25.618;2022-11-11T06:09:47;41.00;;;17.65;;
68353;SDS011;55274;43.060;25.618;2022-11-11T06:12:12;41.70;;;17.08;;
68353;SDS011;55274;43.060;25.618;2022-11-11T06:14:38;37.97;;;17.48;;
68353;SDS011;55274;43.060;25.618;2022-11-11T06:17:04;42.38;;;17.52;;
68353;SDS011;55274;43.060;25.618;2022-11-11T06:19:30;50.22;;;17.38;;
68353;SDS011;55274;43.060;25.618;2022-11-11T06:21:55;40.85;;;16.60;;
68353;SDS011;55274;43.060;25.618;2022-11-11T06:24:21;40.05;;;17.45;;
68353;SDS011;55274;43.060;25.618;2022-11-11T06:26:47;48.80;;;18.45;;
68353;SDS011;55274;43.060;25.618;2022-11-11T06:29:13;49.67;;;19.75;;
68353;SDS011;55274;43.060;25.618;2022-11-11T06:31:39;48.38;;;18.85;;
68353;SDS011;55274;43.060;25.618;2022-11-11T06:34:05;46.38;;;17.27;;
68353;SDS011;55274;43.060;25.618;2022-11-11T06:36:30;46.53;;;17.65;;
68353;SDS011;55274;43.060;25.618;2022-11-11T06:38:56;39.63;;;16.02;;
68353;SDS011;55274;43.060;25.618;2022-11-11T06:41:22;48.47;;;16.50;;
68353;SDS011;55274;43.060;25.618;2022-11-11T06:43:49;50.63;;;18.73;;
68353;SDS011;55274;43.060;25.618;2022-11-11T06:46:24;42.58;;;17.20;;
68353;SDS011;55274;43.060;25.618;2022-11-11T06:48:51;48.53;;;19.40;;
68353;SDS011;55274;43.060;25.618;2022-11-11T06:51:16;51.92;;;20.58;;
68353;SDS011;55274;43.060;25.618;2022-11-11T06:53:43;59.28;;;21.10;;
68353;SDS011;55274;43.060;25.618;2022-11-11T06:56:09;54.33;;;21.25;;
68353;SDS011;55274;43.060;25.618;2022-11-11T06:58:36;55.33;;;22.65;;
68353;SDS011;55274;43.060;25.618;2022-11-11T07:01:06;60.45;;;23.27;;
68353;SDS011;55274;43.060;25.618;2022-11-11T07:03:33;67.40;;;23.40;;
68353;SDS011;55274;43.060;25.618;2022-11-11T07:06:00;65.50;;;22.95;;
68353;SDS011;55274;43.060;25.618;2022-11-11T07:08:27;56.03;;;22.50;;
68353;SDS011;55274;43.060;25.618;2022-11-11T07:10:53;64.15;;;23.33;;
68353;SDS011;55274;43.060;25.618;2022-11-11T07:13:19;61.47;;;22.75;;
68353;SDS011;55274;43.060;25.618;2022-11-11T07:15:45;62.05;;;24.42;;
68353;SDS011;55274;43.060;25.618;2022-11-11T07:18:11;59.97;;;23.92;;
68353;SDS011;55274;43.060;25.618;2022-11-11T07:20:37;68.32;;;24.35;;
68353;SDS011;55274;43.060;25.618;2022-11-11T07:23:04;69.60;;;26.42;;
68353;SDS011;55274;43.060;25.618;2022-11-11T07:25:30;58.08;;;24.02;;
68353;SDS011;55274;43.060;25.618;2022-11-11T07:27:56;56.85;;;25.38;;
68353;SDS011;55274;43.060;25.618;2022-11-11T07:30:22;66.07;;;24.92;;
68353;SDS011;55274;43.060;25.618;2022-11-11T07:32:48;56.95;;;24.48;;
68353;SDS011;55274;43.060;25.618;2022-11-11T07:35:15;58.95;;;23.33;;
68353;SDS011;55274;43.060;25.618;2022-11-11T07:37:42;58.90;;;24.48;;
68353;SDS011;55274;43.060;25.618;2022-11-11T07:40:09;64.97;;;24.60;;
68353;SDS011;55274;43.060;25.618;2022-11-11T07:42:37;61.47;;;23.40;;
68353;SDS011;55274;43.060;25.618;2022-11-11T07:45:04;54.33;;;22.25;;
68353;SDS011;55274;43.060;25.618;2022-11-11T07:47:31;53.72;;;21.63;;
68353;SDS011;55274;43.060;25.618;2022-11-11T07:49:59;53.63;;;19.92;;
68353;SDS011;55274;43.060;25.618;2022-11-11T07:52:25;44.03;;;18.83;;
68353;SDS011;55274;43.060;25.618;2022-11-11T07:54:51;53.70;;;21.98;;
68353;SDS011;55274;43.060;25.618;2022-11-11T07:57:17;48.13;;;19.48;;
68353;SDS011;55274;43.060;25.618;2022-11-11T07:59:43;44.60;;;18.80;;
68353;SDS011;55274;43.060;25.618;2022-11-11T08:02:12;44.50;;;18.77;;
68353;SDS011;55274;43.060;25.618;2022-11-11T08:04:38;43.95;;;19.10;;
68353;SDS011;55274;43.060;25.618;2022-11-11T08:07:04;47.10;;;19.63;;
68353;SDS011;55274;43.060;25.618;2022-11-11T08:09:30;49.88;;;19.48;;
68353;SDS011;55274;43.060;25.618;2022-11-11T08:11:56;47.97;;;19.40;;
68353;SDS011;55274;43.060;25.618;2022-11-11T08:14:40;48.75;;;19.45;;
68353;SDS011;55274;43.060;25.618;2022-11-11T08:17:06;44.30;;;19.33;;
68353;SDS011;55274;43.060;25.618;2022-11-11T08:19:31;54.33;;;22.75;;
68353;SDS011;55274;43.060;25.618;2022-11-11T08:21:57;60.75;;;23.60;;
68353;SDS011;55274;43.060;25.618;2022-11-11T08:24:23;55.83;;;22.92;;
68353;SDS011;55274;43.060;25.618;2022-11-11T08:26:49;57.88;;;23.17;;
68353;SDS011;55274;43.060;25.618;2022-11-11T08:29:15;56.47;;;25.05;;
68353;SDS011;55274;43.060;25.618;2022-11-11T08:31:41;57.00;;;23.30;;
68353;SDS011;55274;43.060;25.618;2022-11-11T08:34:07;58.40;;;23.85;;
68353;SDS011;55274;43.060;25.618;2022-11-11T08:36:33;65.05;;;24.95;;
68353;SDS011;55274;43.060;25.618;2022-11-11T08:38:58;59.90;;;25.23;;
68353;SDS011;55274;43.060;25.618;2022-11-11T08:41:24;59.13;;;25.33;;
68353;SDS011;55274;43.060;25.618;2022-11-11T08:43:51;58.00;;;24.25;;
68353;SDS011;55274;43.060;25.618;2022-11-11T08:46:18;66.97;;;27.25;;
68353;SDS011;55274;43.060;25.618;2022-11-11T08:48:44;58.45;;;24.00;;
68353;SDS011;55274;43.060;25.618;2022-11-11T08:51:11;61.78;;;25.45;;
68353;SDS011;55274;43.060;25.618;2022-11-11T08:53:37;70.70;;;25.63;;
68353;SDS011;55274;43.060;25.618;2022-11-11T08:56:03;60.97;;;24.23;;
68353;SDS011;55274;43.060;25.618;2022-11-11T08:58:29;51.15;;;22.15;;
68353;SDS011;55274;43.060;25.618;2022-11-11T09:00:56;49.10;;;21.75;;
68353;SDS011;55274;43.060;25.618;2022-11-11T09:03:22;49.05;;;20.85;;
68353;SDS011;55274;43.060;25.618;2022-11-11T09:05:48;48.60;;;22.38;;
68353;SDS011;55274;43.060;25.618;2022-11-11T09:08:14;51.70;;;22.33;;
68353;SDS011;55274;43.060;25.618;2022-11-11T09:10:40;49.67;;;21.40;;
68353;SDS011;55274;43.060;25.618;2022-11-11T09:13:05;53.63;;;22.48;;
68353;SDS011;55274;43.060;25.618;2022-11-11T09:15:32;51.10;;;22.42;;
68353;SDS011;55274;43.060;25.618;2022-11-11T09:17:58;55.53;;;23.23;;
68353;SDS011;55274;43.060;25.618;2022-11-11T09:20:24;48.05;;;22.30;;
68353;SDS011;55274;43.060;25.618;2022-11-11T09:22:50;51.42;;;22.77;;
68353;SDS011;55274;43.060;25.618;2022-11-11T09:25:17;52.67;;;23.70;;
68353;SDS011;55274;43.060;25.618;2022-11-11T09:27:43;52.65;;;23.60;;
68353;SDS011;55274;43.060;25.618;2022-11-11T09:30:09;60.78;;;24.70;;
68353;SDS011;55274;43.060;25.618;2022-11-11T09:32:35;60.53;;;25.98;;
68353;SDS011;55274;43.060;25.618;2022-11-11T09:35:02;61.28;;;28.02;;
68353;SDS011;55274;43.060;25.618;2022-11-11T09:37:28;69.38;;;28.73;;
68353;SDS011;55274;43.060;25.618;2022-11-11T09:39:54;66.63;;;27.67;;
68353;SDS011;55274;43.060;25.618;2022-11-11T09:42:31;66.80;;;26.75;;
68353;SDS011;55274;43.060;25.618;2022-11-11T09:48:05;66.63;;;28.15;;
68353;SDS011;55274;43.060;25.618;2022-11-11T09:50:50;64.72;;;26.83;;
68353;SDS011;55274;43.060;25.618;2022-11-11T09:53:21;63.53;;;27.58;;
68353;SDS011;55274;43.060;25.618;2022-11-11T09:56:00;58.58;;;26.98;;
68353;SDS011;55274;43.060;25.618;2022-11-11T09:58:51;64.25;;;27.38;;
68353;SDS011;55274;43.060;25.618;2022-11-11T10:01:32;64.57;;;25.05;;
68353;SDS011;55274;43.060;25.618;2022-11-11T10:04:07;23.25;;;11.18;;
68353;SDS011;55274;43.060;25.618;2022-11-11T10:06:36;30.08;;;14.05;;
68353;SDS011;55274;43.060;25.618;2022-11-11T10:09:05;24.40;;;11.43;;
68353;SDS011;55274;43.060;25.618;2022-11-11T10:14:18;26.17;;;13.45;;
68353;SDS011;55274;43.060;25.618;2022-11-11T10:19:15;20.48;;;11.65;;
68353;SDS011;55274;43.060;25.618;2022-11-11T10:21:53;27.80;;;13.60;;
68353;SDS011;55274;43.060;25.618;2022-11-11T10:24:31;22.27;;;10.32;;
68353;SDS011;55274;43.060;25.618;2022-11-11T10:27:00;228.55;;;111.10;;
68353;SDS011;55274;43.060;25.618;2022-11-11T10:29:38;44.95;;;20.65;;
68353;SDS011;55274;43.060;25.618;2022-11-11T10:32:21;34.63;;;16.33;;
68353;SDS011;55274;43.060;25.618;2022-11-11T10:34:56;25.92;;;13.23;;
68353;SDS011;55274;43.060;25.618;2022-11-11T10:37:40;24.48;;;11.38;;
68353;SDS011;55274;43.060;25.618;2022-11-11T10:42:44;18.13;;;10.23;;
68353;SDS011;55274;43.060;25.618;2022-11-11T10:45:12;16.70;;;8.85;;
68353;SDS011;55274;43.060;25.618;2022-11-11T10:47:50;15.52;;;8.65;;
68353;SDS011;55274;43.060;25.618;2022-11-11T10:50:26;19.00;;;9.18;;
68353;SDS011;55274;43.060;25.618;2022-11-11T10:53:07;16.95;;;8.65;;
68353;SDS011;55274;43.060;25.618;2022-11-11T10:55:39;20.10;;;9.20;;
68353;SDS011;55274;43.060;25.618;2022-11-11T11:00:44;17.33;;;9.48;;
68353;SDS011;55274;43.060;25.618;2022-11-11T11:06:05;20.30;;;9.43;;
68353;SDS011;55274;43.060;25.618;2022-11-11T11:12:01;20.15;;;11.02;;
68353;SDS011;55274;43.060;25.618;2022-11-11T11:14:47;22.92;;;11.55;;
68353;SDS011;55274;43.060;25.618;2022-11-11T11:17:21;25.33;;;11.18;;
68353;SDS011;55274;43.060;25.618;2022-11-11T11:20:05;25.33;;;11.25;;
68353;SDS011;55274;43.060;25.618;2022-11-11T11:22:44;27.77;;;11.93;;
68353;SDS011;55274;43.060;25.618;2022-11-11T11:25:11;25.55;;;12.07;;
68353;SDS011;55274;43.060;25.618;2022-11-11T11:27:37;25.50;;;11.68;;
68353;SDS011;55274;43.060;25.618;2022-11-11T11:30:10;25.13;;;12.05;;
68353;SDS011;55274;43.060;25.618;2022-11-11T11:32:37;25.35;;;12.60;;
68353;SDS011;55274;43.060;25.618;2022-11-11T11:35:06;25.13;;;12.05;;
68353;SDS011;55274;43.060;25.618;2022-11-11T11:37:35;27.50;;;13.02;;
68353;SDS011;55274;43.060;25.618;2022-11-11T11:40:15;23.15;;;11.77;;
68353;SDS011;55274;43.060;25.618;2022-11-11T11:42:41;26.90;;;12.93;;
68353;SDS011;55274;43.060;25.618;2022-11-11T11:47:58;25.02;;;12.18;;
68353;SDS011;55274;43.060;25.618;2022-11-11T11:53:34;27.55;;;12.57;;
68353;SDS011;55274;43.060;25.618;2022-11-11T12:02:44;23.60;;;11.75;;
68353;SDS011;55274;43.060;25.618;2022-11-11T12:05:34;26.55;;;12.20;;
68353;SDS011;55274;43.060;25.618;2022-11-11T12:10:48;21.95;;;10.50;;
68353;SDS011;55274;43.060;25.618;2022-11-11T12:13:49;23.75;;;11.80;;
68353;SDS011;55274;43.060;25.618;2022-11-11T12:16:26;22.65;;;11.43;;
68353;SDS011;55274;43.060;25.618;2022-11-11T12:24:59;24.80;;;11.30;;
68353;SDS011;55274;43.060;25.618;2022-11-11T12:27:38;22.73;;;10.57;;
68353;SDS011;55274;43.060;25.618;2022-11-11T12:30:19;24.27;;;10.73;;
68353;SDS011;55274;43.060;25.618;2022-11-11T12:33:05;22.38;;;11.13;;
68353;SDS011;55274;43.060;25.618;2022-11-11T12:44:08;25.52;;;11.95;;
68353;SDS011;55274;43.060;25.618;2022-11-11T12:51:54;35.65;;;16.88;;
68353;SDS011;55274;43.060;25.618;2022-11-11T12:54:25;24.33;;;12.25;;
68353;SDS011;55274;43.060;25.618;2022-11-11T13:04:48;22.90;;;13.10;;
68353;SDS011;55274;43.060;25.618;2022-11-11T13:07:29;29.17;;;13.73;;
68353;SDS011;55274;43.060;25.618;2022-11-11T13:13:35;23.83;;;11.07;;
68353;SDS011;55274;43.060;25.618;2022-11-11T13:16:05;23.83;;;11.63;;
68353;SDS011;55274;43.060;25.618;2022-11-11T13:21:09;19.55;;;9.82;;
68353;SDS011;55274;43.060;25.618;2022-11-11T13:23:46;27.05;;;14.88;;
68353;SDS011;55274;43.060;25.618;2022-11-11T13:29:16;21.13;;;10.30;;
68353;SDS011;55274;43.060;25.618;2022-11-11T13:31:56;23.17;;;9.15;;
68353;SDS011;55274;43.060;25.618;2022-11-11T13:34:23;18.63;;;9.10;;
68353;SDS011;55274;43.060;25.618;2022-11-11T13:36:51;18.40;;;9.07;;
68353;SDS011;55274;43.060;25.618;2022-11-11T13:39:24;18.95;;;8.85;;
68353;SDS011;55274;43.060;25.618;2022-11-11T13:41:52;14.80;;;7.95;;
68353;SDS011;55274;43.060;25.618;2022-11-11T13:44:25;17.90;;;8.15;;
68353;SDS011;55274;43.060;25.618;2022-11-11T13:46:59;20.00;;;9.98;;
68353;SDS011;55274;43.060;25.618;2022-11-11T13:49:33;14.65;;;7.80;;
68353;SDS011;55274;43.060;25.618;2022-11-11T13:52:03;16.48;;;8.52;;
68353;SDS011;55274;43.060;25.618;2022-11-11T13:54:49;17.42;;;8.32;;
68353;SDS011;55274;43.060;25.618;2022-11-11T13:57:26;14.95;;;7.90;;
68353;SDS011;55274;43.060;25.618;2022-11-11T14:00:05;19.05;;;8.60;;
68353;SDS011;55274;43.060;25.618;2022-11-11T14:05:44;15.73;;;8.18;;
68353;SDS011;55274;43.060;25.618;2022-11-11T14:08:27;16.98;;;8.93;;
68353;SDS011;55274;43.060;25.618;2022-11-11T14:13:49;21.35;;;9.75;;
68353;SDS011;55274;43.060;25.618;2022-11-11T14:21:53;20.70;;;10.05;;
68353;SDS011;55274;43.060;25.618;2022-11-11T14:24:40;24.25;;;11.25;;
68353;SDS011;55274;43.060;25.618;2022-11-11T14:29:36;19.58;;;9.15;;
68353;SDS011;55274;43.060;25.618;2022-11-11T14:40:52;12.23;;;6.72;;
68353;SDS011;55274;43.060;25.618;2022-11-11T14:46:00;12.25;;;6.15;;
68353;SDS011;55274;43.060;25.618;2022-11-11T14:54:15;13.65;;;7.25;;
68353;SDS011;55274;43.060;25.618;2022-11-11T14:57:05;17.08;;;8.13;;
68353;SDS011;55274;43.060;25.618;2022-11-11T14:59:32;19.05;;;7.30;;
68353;SDS011;55274;43.060;25.618;2022-11-11T15:01:59;16.27;;;7.47;;
68353;SDS011;55274;43.060;25.618;2022-11-11T15:04:26;13.77;;;7.35;;
68353;SDS011;55274;43.060;25.618;2022-11-11T15:07:04;16.77;;;9.27;;
68353;SDS011;55274;43.060;25.618;2022-11-11T15:12:56;16.48;;;7.78;;
68353;SDS011;55274;43.060;25.618;2022-11-11T15:21:08;14.23;;;6.25;;
68353;SDS011;55274;43.060;25.618;2022-11-11T15:32:29;10.57;;;5.53;;
68353;SDS011;55274;43.060;25.618;2022-11-11T15:37:51;16.17;;;6.80;;
68353;SDS011;55274;43.060;25.618;2022-11-11T15:40:24;12.10;;;6.30;;
68353;SDS011;55274;43.060;25.618;2022-11-11T15:42:51;13.77;;;6.25;;
68353;SDS011;55274;43.060;25.618;2022-11-11T15:47:44;11.05;;;6.13;;
68353;SDS011;55274;43.060;25.618;2022-11-11T15:50:22;9.52;;;5.10;;
68353;SDS011;55274;43.060;25.618;2022-11-11T15:53:01;10.00;;;5.47;;
68353;SDS011;55274;43.060;25.618;2022-11-11T15:55:28;9.20;;;4.20;;
68353;SDS011;55274;43.060;25.618;2022-11-11T15:58:06;9.63;;;4.95;;
68353;SDS011;55274;43.060;25.618;2022-11-11T16:00:33;12.73;;;5.53;;
68353;SDS011;55274;43.060;25.618;2022-11-11T16:02:59;13.40;;;7.30;;
68353;SDS011;55274;43.060;25.618;2022-11-11T16:05:26;7.45;;;4.38;;
68353;SDS011;55274;43.060;25.618;2022-11-11T16:07:55;9.50;;;5.38;;
68353;SDS011;55274;43.060;25.618;2022-11-11T16:10:37;5.40;;;3.08;;
68353;SDS011;55274;43.060;25.618;2022-11-11T16:13:16;8.25;;;3.83;;
68353;SDS011;55274;43.060;25.618;2022-11-11T16:18:28;6.63;;;4.13;;
68353;SDS011;55274;43.060;25.618;2022-11-11T16:23:46;4.30;;;2.78;;
68353;SDS011;55274;43.060;25.618;2022-11-11T16:26:13;6.13;;;3.20;;
68353;SDS011;55274;43.060;25.618;2022-11-11T16:28:41;6.55;;;3.28;;
68353;SDS011;55274;43.060;25.618;2022-11-11T16:31:20;4.88;;;3.08;;
68353;SDS011;55274;43.060;25.618;2022-11-11T16:33:46;6.38;;;3.33;;
68353;SDS011;55274;43.060;25.618;2022-11-11T16:36:12;6.35;;;3.85;;
68353;SDS011;55274;43.060;25.618;2022-11-11T16:38:38;5.90;;;3.20;;
68353;SDS011;55274;43.060;25.618;2022-11-11T16:46:51;6.43;;;3.20;;
68353;SDS011;55274;43.060;25.618;2022-11-11T16:51:43;6.25;;;2.92;;
68353;SDS011;55274;43.060;25.618;2022-11-11T16:54:11;5.95;;;3.20;;
68353;SDS011;55274;43.060;25.618;2022-11-11T16:56:43;5.53;;;3.08;;
68353;SDS011;55274;43.060;25.618;2022-11-11T16:59:14;5.00;;;2.60;;